sensor_id;sensor_type;location;lat;lon;timestamp;pressure;altitude;pressure_sealevel;temperature;humidity
1371;BME280;14306;49.942;11.570;2023-12-29T00:01:30;97395.41;;;9.43;100.00
1371;BME280;14306;49.942;11.570;2023-12-29T00:03:04;97387.50;;;9.47;100.00
1371;BME280;14306;49.942;11.570;2023-12-29T00:04:39;97384.41;;;9.40;100.00
1371;BME280;14306;49.942;11.570;2023-12-29T00:06:12;97375.78;;;9.38;100.00
1371;BME280;14306;49.942;11.570;2023-12-29T00:07:46;97376.78;;;9.42;100.00
1371;BME280;14306;49.942;11.570;2023-12-29T00:09:19;97375.69;;;9.43;100.00
1371;BME280;14306;49.942;11.570;2023-12-29T00:10:55;97377.66;;;9.37;100.00
1371;BME280;14306;49.942;11.570;2023-12-29T00:12:28;97376.09;;;9.50;100.00
1371;BME280;14306;49.942;11.570;2023-12-29T00:14:02;97365.09;;;9.46;100.00
1371;BME280;14306;49.942;11.570;2023-12-29T00:15:35;97362.50;;;9.41;100.00
1371;BME280;14306;49.942;11.570;2023-12-29T00:17:12;97364.88;;;9.43;100.00
1371;BME280;14306;49.942;11.570;2023-12-29T00:18:45;97357.88;;;9.42;100.00
1371;BME280;14306;49.942;11.570;2023-12-29T00:20:20;97354.75;;;9.35;100.00
1371;BME280;14306;49.942;11.570;2023-12-29T00:22:09;97365.09;;;9.46;100.00
1371;BME280;14306;49.942;11.570;2023-12-29T00:23:44;97369.97;;;9.44;100.00
1371;BME280;14306;49.942;11.570;2023-12-29T00:25:17;97363.50;;;9.45;100.00
1371;BME280;14306;49.942;11.570;2023-12-29T00:26:51;97366.78;;;9.42;100.00
1371;BME280;14306;49.942;11.570;2023-12-29T00:28:25;97369.09;;;9.49;100.00
1371;BME280;14306;49.942;11.570;2023-12-29T00:29:59;97363.09;;;9.52;100.00
1371;BME280;14306;49.942;11.570;2023-12-29T00:31:32;97366.59;;;9.52;100.00
1371;BME280;14306;49.942;11.570;2023-12-29T00:33:07;97351.44;;;9.38;100.00
1371;BME280;14306;49.942;11.570;2023-12-29T00:34:40;97358.28;;;9.49;100.00
1371;BME280;14306;49.942;11.570;2023-12-29T00:36:15;97340.44;;;9.34;100.00
1371;BME280;14306;49.942;11.570;2023-12-29T00:37:49;97359.09;;;9.49;100.00
1371;BME280;14306;49.942;11.570;2023-12-29T00:39:24;97359.69;;;9.46;100.00
1371;BME280;14306;49.942;11.570;2023-12-29T00:41:01;97366.59;;;9.52;100.00
1371;BME280;14306;49.942;11.570;2023-12-29T00:42:37;97370.63;;;9.55;100.00
1371;BME280;14306;49.942;11.570;2023-12-29T00:44:12;97371.13;;;9.57;100.00
1371;BME280;14306;49.942;11.570;2023-12-29T00:45:45;97374.69;;;9.52;100.00
1371;BME280;14306;49.942;11.570;2023-12-29T00:47:19;97375.31;;;9.49;100.00
1371;BME280;14306;49.942;11.570;2023-12-29T00:48:54;97369.19;;;9.44;100.00
1371;BME280;14306;49.942;11.570;2023-12-29T00:50:29;97366.09;;;9.50;100.00
1371;BME280;14306;49.942;11.570;2023-12-29T00:52:04;97371.00;;;9.48;100.00
1371;BME280;14306;49.942;11.570;2023-12-29T00:53:38;97371.59;;;9.45;100.00
1371;BME280;14306;49.942;11.570;2023-12-29T00:55:11;97351.19;;;9.53;100.00
1371;BME280;14306;49.942;11.570;2023-12-29T00:56:48;97361.50;;;9.51;100.00
1371;BME280;14306;49.942;11.570;2023-12-29T00:58:21;97369.28;;;9.52;100.00
1371;BME280;14306;49.942;11.570;2023-12-29T00:59:55;97360.00;;;9.58;100.00
1371;BME280;14306;49.942;11.570;2023-12-29T01:01:33;97366.41;;;9.62;100.00
1371;BME280;14306;49.942;11.570;2023-12-29T01:03:08;97359.72;;;9.60;100.00
1371;BME280;14306;49.942;11.570;2023-12-29T01:04:42;97360.31;;;9.57;100.00
1371;BME280;14306;49.942;11.570;2023-12-29T01:06:16;97364.31;;;9.59;100.00
1371;BME280;14306;49.942;11.570;2023-12-29T01:07:50;97360.81;;;9.59;100.00
1371;BME280;14306;49.942;11.570;2023-12-29T01:09:24;97363.59;;;9.54;100.00
1371;BME280;14306;49.942;11.570;2023-12-29T01:10:57;97367.59;;;9.56;100.00
1371;BME280;14306;49.942;11.570;2023-12-29T01:12:31;97371.00;;;9.62;100.00
1371;BME280;14306;49.942;11.570;2023-12-29T01:14:04;97369.81;;;9.54;100.00
1371;BME280;14306;49.942;11.570;2023-12-29T01:15:38;97369.50;;;9.56;100.00
1371;BME280;14306;49.942;11.570;2023-12-29T01:17:13;97360.88;;;9.54;100.00
1371;BME280;14306;49.942;11.570;2023-12-29T01:18:47;97368.91;;;9.45;100.00
1371;BME280;14306;49.942;11.570;2023-12-29T01:20:22;97347.19;;;9.50;100.00
1371;BME280;14306;49.942;11.570;2023-12-29T01:21:56;97346.97;;;9.47;100.00
1371;BME280;14306;49.942;11.570;2023-12-29T01:23:29;97357.47;;;9.48;100.00
1371;BME280;14306;49.942;11.570;2023-12-29T01:25:04;97369.38;;;9.47;100.00
1371;BME280;14306;49.942;11.570;2023-12-29T01:26:37;97365.38;;;9.45;100.00
1371;BME280;14306;49.942;11.570;2023-12-29T01:28:12;97361.56;;;9.46;100.00
1371;BME280;14306;49.942;11.570;2023-12-29T01:29:45;97360.97;;;9.35;100.00
1371;BME280;14306;49.942;11.570;2023-12-29T01:31:19;97357.66;;;9.25;100.00
1371;BME280;14306;49.942;11.570;2023-12-29T01:32:53;97357.03;;;9.28;100.00
1371;BME280;14306;49.942;11.570;2023-12-29T01:34:27;97360.06;;;9.26;100.00
1371;BME280;14306;49.942;11.570;2023-12-29T01:36:07;97351.84;;;9.31;100.00
1371;BME280;14306;49.942;11.570;2023-12-29T01:37:49;97353.06;;;9.39;100.00
1371;BME280;14306;49.942;11.570;2023-12-29T01:39:23;97362.97;;;9.43;100.00
1371;BME280;14306;49.942;11.570;2023-12-29T01:40:57;97353.19;;;9.47;100.00
1371;BME280;14306;49.942;11.570;2023-12-29T01:42:30;97346.75;;;9.43;100.00
1371;BME280;14306;49.942;11.570;2023-12-29T01:44:20;97354.00;;;9.48;100.00
1371;BME280;14306;49.942;11.570;2023-12-29T01:45:53;97351.91;;;9.58;100.00
1371;BME280;14306;49.942;11.570;2023-12-29T01:47:30;97351.19;;;9.53;100.00
1371;BME280;14306;49.942;11.570;2023-12-29T01:49:04;97343.59;;;9.55;100.00
1371;BME280;14306;49.942;11.570;2023-12-29T01:50:38;97336.09;;;9.65;100.00
1371;BME280;14306;49.942;11.570;2023-12-29T01:52:16;97340.88;;;9.55;100.00
1371;BME280;14306;49.942;11.570;2023-12-29T01:53:50;97345.38;;;9.59;100.00
1371;BME280;14306;49.942;11.570;2023-12-29T01:55:25;97353.31;;;9.69;100.00
1371;BME280;14306;49.942;11.570;2023-12-29T01:57:01;97342.38;;;9.74;100.00
1371;BME280;14306;49.942;11.570;2023-12-29T01:58:35;97338.78;;;9.65;100.00
1371;BME280;14306;49.942;11.570;2023-12-29T02:00:11;97341.50;;;9.65;100.00
1371;BME280;14306;49.942;11.570;2023-12-29T02:01:44;97347.59;;;9.71;100.00
1371;BME280;14306;49.942;11.570;2023-12-29T02:03:19;97346.50;;;9.85;100.00
1371;BME280;14306;49.942;11.570;2023-12-29T02:04:53;97354.50;;;9.77;100.00
1371;BME280;14306;49.942;11.570;2023-12-29T02:06:28;97350.09;;;9.81;100.00
1371;BME280;14306;49.942;11.570;2023-12-29T02:08:04;97327.97;;;9.65;100.00
1371;BME280;14306;49.942;11.570;2023-12-29T02:09:41;97349.63;;;9.79;100.00
1371;BME280;14306;49.942;11.570;2023-12-29T02:11:16;97343.50;;;9.73;100.00
1371;BME280;14306;49.942;11.570;2023-12-29T02:12:50;97352.22;;;9.84;100.00
1371;BME280;14306;49.942;11.570;2023-12-29T02:14:27;97354.13;;;9.83;100.00
1371;BME280;14306;49.942;11.570;2023-12-29T02:16:06;97347.50;;;9.89;100.00
1371;BME280;14306;49.942;11.570;2023-12-29T02:17:43;97343.78;;;9.85;100.00
1371;BME280;14306;49.942;11.570;2023-12-29T02:19:37;97344.69;;;9.94;100.00
1371;BME280;14306;49.942;11.570;2023-12-29T02:21:11;97348.72;;;9.97;100.00
1371;BME280;14306;49.942;11.570;2023-12-29T02:22:45;97346.78;;;9.97;100.00
1371;BME280;14306;49.942;11.570;2023-12-29T02:24:20;97341.69;;;9.96;100.00
1371;BME280;14306;49.942;11.570;2023-12-29T02:26:01;97352.72;;;9.99;100.00
1371;BME280;14306;49.942;11.570;2023-12-29T02:27:43;97351.22;;;10.07;100.00
1371;BME280;14306;49.942;11.570;2023-12-29T02:29:20;97352.22;;;9.97;100.00
1371;BME280;14306;49.942;11.570;2023-12-29T02:31:00;97356.94;;;10.05;100.00
1371;BME280;14306;49.942;11.570;2023-12-29T02:32:38;97351.63;;;10.00;100.00
1371;BME280;14306;49.942;11.570;2023-12-29T02:34:14;97357.03;;;10.00;100.00
1371;BME280;14306;49.942;11.570;2023-12-29T02:35:51;97365.94;;;10.01;100.00
1371;BME280;14306;49.942;11.570;2023-12-29T02:37:26;97363.44;;;9.91;100.00
1371;BME280;14306;49.942;11.570;2023-12-29T02:39:00;97358.31;;;9.89;100.00
1371;BME280;14306;49.942;11.570;2023-12-29T02:40:34;97360.72;;;9.77;100.00
1371;BME280;14306;49.942;11.570;2023-12-29T02:42:13;97357.03;;;9.73;100.00
1371;BME280;14306;49.942;11.570;2023-12-29T02:43:46;97358.72;;;9.69;100.00
1371;BME280;14306;49.942;11.570;2023-12-29T02:45:20;97350.88;;;9.54;100.00
1371;BME280;14306;49.942;11.570;2023-12-29T02:46:53;97348.38;;;9.58;100.00
1371;BME280;14306;49.942;11.570;2023-12-29T02:48:27;97350.28;;;9.57;100.00
1371;BME280;14306;49.942;11.570;2023-12-29T02:50:00;97345.78;;;9.53;100.00
1371;BME280;14306;49.942;11.570;2023-12-29T02:51:35;97346.06;;;9.51;100.00
1371;BME280;14306;49.942;11.570;2023-12-29T02:53:09;97339.25;;;9.54;100.00
1371;BME280;14306;49.942;11.570;2023-12-29T02:54:43;97344.25;;;9.47;100.00
1371;BME280;14306;49.942;11.570;2023-12-29T02:56:16;97334.16;;;9.52;100.00
1371;BME280;14306;49.942;11.570;2023-12-29T02:57:51;97330.56;;;9.70;100.00
1371;BME280;14306;49.942;11.570;2023-12-29T02:59:26;97325.28;;;9.65;100.00
1371;BME280;14306;49.942;11.570;2023-12-29T03:00:59;97324.34;;;9.56;100.00
1371;BME280;14306;49.942;11.570;2023-12-29T03:02:33;97328.47;;;9.67;100.00
1371;BME280;14306;49.942;11.570;2023-12-29T03:04:07;97326.06;;;9.66;100.00
1371;BME280;14306;49.942;11.570;2023-12-29T03:05:41;97321.44;;;9.53;100.00
1371;BME280;14306;49.942;11.570;2023-12-29T03:07:15;97323.34;;;9.52;100.00
1371;BME280;14306;49.942;11.570;2023-12-29T03:08:48;97314.16;;;9.53;100.00
1371;BME280;14306;49.942;11.570;2023-12-29T03:10:23;97312.75;;;9.56;100.00
1371;BME280;14306;49.942;11.570;2023-12-29T03:11:56;97327.84;;;9.57;100.00
1371;BME280;14306;49.942;11.570;2023-12-29T03:13:32;97324.34;;;9.70;100.00
1371;BME280;14306;49.942;11.570;2023-12-29T03:15:06;97313.16;;;9.63;100.00
1371;BME280;14306;49.942;11.570;2023-12-29T03:16:41;97326.69;;;9.63;100.00
1371;BME280;14306;49.942;11.570;2023-12-29T03:18:15;97323.28;;;9.71;100.00
1371;BME280;14306;49.942;11.570;2023-12-29T03:19:49;97321.34;;;9.85;100.00
1371;BME280;14306;49.942;11.570;2023-12-29T03:21:22;97316.75;;;9.85;100.00
1371;BME280;14306;49.942;11.570;2023-12-29T03:22:56;97316.63;;;9.77;100.00
1371;BME280;14306;49.942;11.570;2023-12-29T03:24:30;97313.84;;;9.68;100.00
1371;BME280;14306;49.942;11.570;2023-12-29T03:26:04;97307.03;;;9.71;100.00
1371;BME280;14306;49.942;11.570;2023-12-29T03:27:38;97296.41;;;9.88;100.00
1371;BME280;14306;49.942;11.570;2023-12-29T03:29:14;97305.03;;;9.76;100.00
1371;BME280;14306;49.942;11.570;2023-12-29T03:30:47;97306.44;;;9.74;100.00
1371;BME280;14306;49.942;11.570;2023-12-29T03:32:22;97291.72;;;9.80;100.00
1371;BME280;14306;49.942;11.570;2023-12-29T03:33:55;97291.59;;;9.85;100.00
1371;BME280;14306;49.942;11.570;2023-12-29T03:35:29;97294.22;;;9.90;100.00
1371;BME280;14306;49.942;11.570;2023-12-29T03:37:03;97291.59;;;9.98;100.00
1371;BME280;14306;49.942;11.570;2023-12-29T03:38:37;97296.53;;;9.83;100.00
1371;BME280;14306;49.942;11.570;2023-12-29T03:40:11;97297.69;;;9.90;100.00
1371;BME280;14306;49.942;11.570;2023-12-29T03:41:45;97289.69;;;9.99;100.00
1371;BME280;14306;49.942;11.570;2023-12-29T03:43:20;97294.81;;;9.87;100.00
1371;BME280;14306;49.942;11.570;2023-12-29T03:44:55;97308.03;;;9.88;100.00
1371;BME280;14306;49.942;11.570;2023-12-29T03:46:30;97309.75;;;9.84;100.00
1371;BME280;14306;49.942;11.570;2023-12-29T03:48:04;97299.81;;;9.93;100.00
1371;BME280;14306;49.942;11.570;2023-12-29T03:49:39;97296.09;;;9.89;100.00
1371;BME280;14306;49.942;11.570;2023-12-29T03:51:13;97292.41;;;9.85;100.00
1371;BME280;14306;49.942;11.570;2023-12-29T03:52:47;97297.94;;;9.80;100.00
1371;BME280;14306;49.942;11.570;2023-12-29T03:54:21;97292.59;;;9.75;100.00
1371;BME280;14306;49.942;11.570;2023-12-29T03:55:55;97304.03;;;9.86;100.00
1371;BME280;14306;49.942;11.570;2023-12-29T03:57:29;97305.44;;;9.83;100.00
1371;BME280;14306;49.942;11.570;2023-12-29T03:59:02;97304.41;;;9.79;100.00
1371;BME280;14306;49.942;11.570;2023-12-29T04:00:38;97297.94;;;9.80;100.00
1371;BME280;14306;49.942;11.570;2023-12-29T04:02:15;97305.03;;;9.90;100.00
1371;BME280;14306;49.942;11.570;2023-12-29T04:03:50;97308.94;;;9.84;100.00
1371;BME280;14306;49.942;11.570;2023-12-29T04:05:24;97294.69;;;9.92;100.00
1371;BME280;14306;49.942;11.570;2023-12-29T04:06:57;97279.47;;;9.82;100.00
1371;BME280;14306;49.942;11.570;2023-12-29T04:08:32;97309.94;;;9.88;100.00
1371;BME280;14306;49.942;11.570;2023-12-29T04:10:09;97296.81;;;9.95;100.00
1371;BME280;14306;49.942;11.570;2023-12-29T04:11:42;97304.13;;;9.94;100.00
1371;BME280;14306;49.942;11.570;2023-12-29T04:13:16;97299.13;;;9.88;100.00
1371;BME280;14306;49.942;11.570;2023-12-29T04:14:50;97301.53;;;9.89;100.00
1371;BME280;14306;49.942;11.570;2023-12-29T04:16:25;97304.03;;;9.86;100.00
1371;BME280;14306;49.942;11.570;2023-12-29T04:17:58;97305.94;;;9.85;100.00
1371;BME280;14306;49.942;11.570;2023-12-29T04:19:33;97310.44;;;9.90;100.00
1371;BME280;14306;49.942;11.570;2023-12-29T04:21:06;97316.03;;;9.93;100.00
1371;BME280;14306;49.942;11.570;2023-12-29T04:22:41;97318.25;;;9.91;100.00
1371;BME280;14306;49.942;11.570;2023-12-29T04:24:15;97318.97;;;9.83;100.00
1371;BME280;14306;49.942;11.570;2023-12-29T04:25:50;97312.34;;;9.62;100.00
1371;BME280;14306;49.942;11.570;2023-12-29T04:27:23;97325.88;;;9.62;100.00
1371;BME280;14306;49.942;11.570;2023-12-29T04:28:57;97312.84;;;9.64;100.00
1371;BME280;14306;49.942;11.570;2023-12-29T04:30:30;97319.56;;;9.53;100.00
1371;BME280;14306;49.942;11.570;2023-12-29T04:32:07;97308.81;;;9.62;100.00
1371;BME280;14306;49.942;11.570;2023-12-29T04:33:41;97312.22;;;9.54;100.00
1371;BME280;14306;49.942;11.570;2023-12-29T04:35:14;97319.03;;;9.65;100.00
1371;BME280;14306;49.942;11.570;2023-12-29T04:36:48;97314.34;;;9.70;100.00
1371;BME280;14306;49.942;11.570;2023-12-29T04:38:23;97315.47;;;9.69;100.00
1371;BME280;14306;49.942;11.570;2023-12-29T04:39:56;97316.34;;;9.65;100.00
1371;BME280;14306;49.942;11.570;2023-12-29T04:41:30;97318.94;;;9.56;100.00
1371;BME280;14306;49.942;11.570;2023-12-29T04:43:04;97311.94;;;9.55;100.00
1371;BME280;14306;49.942;11.570;2023-12-29T04:44:38;97278.47;;;9.24;100.00
1371;BME280;14306;49.942;11.570;2023-12-29T04:46:12;97307.31;;;9.42;100.00
1371;BME280;14306;49.942;11.570;2023-12-29T04:47:47;97327.56;;;9.58;100.00
1371;BME280;14306;49.942;11.570;2023-12-29T04:49:21;97330.16;;;9.50;100.00
1371;BME280;14306;49.942;11.570;2023-12-29T04:50:55;97332.06;;;9.49;100.00
1371;BME280;14306;49.942;11.570;2023-12-29T04:52:29;97339.75;;;9.42;100.00
1371;BME280;14306;49.942;11.570;2023-12-29T04:54:02;97340.53;;;9.43;100.00
1371;BME280;14306;49.942;11.570;2023-12-29T04:55:36;97335.53;;;9.36;100.00
1371;BME280;14306;49.942;11.570;2023-12-29T04:57:11;97341.16;;;9.40;100.00
1371;BME280;14306;49.942;11.570;2023-12-29T04:58:45;97331.78;;;9.51;100.00
1371;BME280;14306;49.942;11.570;2023-12-29T05:00:19;97335.84;;;9.48;100.00
1371;BME280;14306;49.942;11.570;2023-12-29T05:01:52;97328.03;;;9.47;100.00
1371;BME280;14306;49.942;11.570;2023-12-29T05:03:28;97329.44;;;9.44;100.00
1371;BME280;14306;49.942;11.570;2023-12-29T05:05:01;97332.84;;;9.50;100.00
1371;BME280;14306;49.942;11.570;2023-12-29T05:06:36;97335.84;;;9.48;100.00
1371;BME280;14306;49.942;11.570;2023-12-29T05:08:09;97324.56;;;9.46;100.00
1371;BME280;14306;49.942;11.570;2023-12-29T05:09:47;97324.84;;;9.45;100.00
1371;BME280;14306;49.942;11.570;2023-12-29T05:11:20;97327.72;;;9.35;100.00
1371;BME280;14306;49.942;11.570;2023-12-29T05:12:54;97318.31;;;9.32;100.00
1371;BME280;14306;49.942;11.570;2023-12-29T05:14:28;97317.53;;;9.32;100.00
1371;BME280;14306;49.942;11.570;2023-12-29T05:16:02;97324.91;;;9.26;100.00
1371;BME280;14306;49.942;11.570;2023-12-29T05:17:37;97315.47;;;9.24;100.00
1371;BME280;14306;49.942;11.570;2023-12-29T05:19:13;97309.88;;;9.20;100.00
1371;BME280;14306;49.942;11.570;2023-12-29T05:20:47;97316.19;;;9.29;100.00
1371;BME280;14306;49.942;11.570;2023-12-29T05:22:21;97313.88;;;9.23;100.00
1371;BME280;14306;49.942;11.570;2023-12-29T05:23:55;97321.72;;;9.38;100.00
1371;BME280;14306;49.942;11.570;2023-12-29T05:25:28;97323.31;;;9.39;100.00
1371;BME280;14306;49.942;11.570;2023-12-29T05:27:03;97317.13;;;9.38;100.00
1371;BME280;14306;49.942;11.570;2023-12-29T05:28:37;97319.03;;;9.38;100.00
1371;BME280;14306;49.942;11.570;2023-12-29T05:30:12;97326.94;;;9.34;100.00
1371;BME280;14306;49.942;11.570;2023-12-29T05:31:45;97332.06;;;9.36;100.00
1371;BME280;14306;49.942;11.570;2023-12-29T05:33:19;97330.13;;;9.36;100.00
1371;BME280;14306;49.942;11.570;2023-12-29T05:34:54;97346.28;;;9.41;100.00
1371;BME280;14306;49.942;11.570;2023-12-29T05:36:28;97334.53;;;9.32;100.00
1371;BME280;14306;49.942;11.570;2023-12-29T05:38:01;97329.13;;;9.32;100.00
1371;BME280;14306;49.942;11.570;2023-12-29T05:39:35;97330.72;;;9.33;100.00
1371;BME280;14306;49.942;11.570;2023-12-29T05:41:12;97327.00;;;9.29;100.00
1371;BME280;14306;49.942;11.570;2023-12-29T05:42:47;97334.75;;;9.36;100.00
1371;BME280;14306;49.942;11.570;2023-12-29T05:44:20;97329.94;;;9.33;100.00
1371;BME280;14306;49.942;11.570;2023-12-29T05:45:55;97317.41;;;9.23;100.00
1371;BME280;14306;49.942;11.570;2023-12-29T05:47:29;97332.69;;;9.28;100.00
1371;BME280;14306;49.942;11.570;2023-12-29T05:49:04;97334.09;;;9.25;100.00
1371;BME280;14306;49.942;11.570;2023-12-29T05:50:39;97325.28;;;9.20;100.00
1371;BME280;14306;49.942;11.570;2023-12-29T05:52:13;97339.41;;;9.17;100.00
1371;BME280;14306;49.942;11.570;2023-12-29T05:53:47;97333.78;;;9.13;100.00
1371;BME280;14306;49.942;11.570;2023-12-29T05:55:21;97332.06;;;9.04;100.00
1371;BME280;14306;49.942;11.570;2023-12-29T05:56:55;97335.75;;;9.08;100.00
1371;BME280;14306;49.942;11.570;2023-12-29T05:58:29;97337.38;;;9.09;100.00
1371;BME280;14306;49.942;11.570;2023-12-29T06:00:03;97330.88;;;9.10;100.00
1371;BME280;14306;49.942;11.570;2023-12-29T06:01:38;97333.03;;;8.94;100.00
1371;BME280;14306;49.942;11.570;2023-12-29T06:03:12;97320.63;;;8.93;100.00
1371;BME280;14306;49.942;11.570;2023-12-29T06:04:45;97336.53;;;8.95;100.00
1371;BME280;14306;49.942;11.570;2023-12-29T06:06:22;97333.97;;;8.85;100.00
1371;BME280;14306;49.942;11.570;2023-12-29T06:07:55;97331.19;;;8.76;100.00
1371;BME280;14306;49.942;11.570;2023-12-29T06:09:29;97337.78;;;8.84;100.00
1371;BME280;14306;49.942;11.570;2023-12-29T06:11:03;97336.00;;;8.61;100.00
1371;BME280;14306;49.942;11.570;2023-12-29T06:12:38;97329.06;;;8.55;100.00
1371;BME280;14306;49.942;11.570;2023-12-29T06:14:11;97346.78;;;8.61;100.00
1371;BME280;14306;49.942;11.570;2023-12-29T06:15:46;97340.66;;;8.55;100.00
1371;BME280;14306;49.942;11.570;2023-12-29T06:17:20;97336.28;;;8.59;100.00
1371;BME280;14306;49.942;11.570;2023-12-29T06:18:54;97336.41;;;8.49;100.00
1371;BME280;14306;49.942;11.570;2023-12-29T06:20:28;97344.59;;;8.44;100.00
1371;BME280;14306;49.942;11.570;2023-12-29T06:22:03;97351.09;;;8.43;100.00
1371;BME280;14306;49.942;11.570;2023-12-29T06:23:37;97335.47;;;8.40;100.00
1371;BME280;14306;49.942;11.570;2023-12-29T06:25:11;97345.41;;;8.45;100.00
1371;BME280;14306;49.942;11.570;2023-12-29T06:26:47;97338.69;;;8.42;100.00
1371;BME280;14306;49.942;11.570;2023-12-29T06:28:20;97339.72;;;8.46;100.00
1371;BME280;14306;49.942;11.570;2023-12-29T06:29:55;97339.44;;;8.48;100.00
1371;BME280;14306;49.942;11.570;2023-12-29T06:31:29;97331.69;;;8.41;100.00
1371;BME280;14306;49.942;11.570;2023-12-29T06:33:03;97340.88;;;8.40;100.00
1371;BME280;14306;49.942;11.570;2023-12-29T06:34:37;97329.16;;;8.31;100.00
1371;BME280;14306;49.942;11.570;2023-12-29T06:36:12;97320.53;;;8.29;100.00
1371;BME280;14306;49.942;11.570;2023-12-29T06:37:48;97309.00;;;8.24;100.00
1371;BME280;14306;49.942;11.570;2023-12-29T06:39:21;97314.22;;;8.15;100.00
1371;BME280;14306;49.942;11.570;2023-12-29T06:40:55;97304.81;;;8.12;100.00
1371;BME280;14306;49.942;11.570;2023-12-29T06:42:29;97298.75;;;8.02;100.00
1371;BME280;14306;49.942;11.570;2023-12-29T06:44:04;97300.72;;;7.96;100.00
1371;BME280;14306;49.942;11.570;2023-12-29T06:45:39;97302.47;;;7.87;100.00
1371;BME280;14306;49.942;11.570;2023-12-29T06:47:12;97294.66;;;7.86;100.00
1371;BME280;14306;49.942;11.570;2023-12-29T06:48:46;97291.78;;;7.77;100.00
1371;BME280;14306;49.942;11.570;2023-12-29T06:50:21;97297.53;;;7.71;100.00
1371;BME280;14306;49.942;11.570;2023-12-29T06:51:55;97289.97;;;7.73;100.00
1371;BME280;14306;49.942;11.570;2023-12-29T06:53:30;97294.78;;;7.76;100.00
1371;BME280;14306;49.942;11.570;2023-12-29T06:55:05;97285.91;;;7.75;100.00
1371;BME280;14306;49.942;11.570;2023-12-29T06:56:39;97285.09;;;7.75;100.00
1371;BME280;14306;49.942;11.570;2023-12-29T06:58:13;97281.53;;;7.79;100.00
1371;BME280;14306;49.942;11.570;2023-12-29T06:59:48;97281.81;;;7.78;100.00
1371;BME280;14306;49.942;11.570;2023-12-29T07:01:24;97286.63;;;7.81;100.00
1371;BME280;14306;49.942;11.570;2023-12-29T07:02:57;97286.34;;;7.82;100.00
1371;BME280;14306;49.942;11.570;2023-12-29T07:04:32;97279.63;;;7.80;100.00
1371;BME280;14306;49.942;11.570;2023-12-29T07:06:05;97281.75;;;7.83;100.00
1371;BME280;14306;49.942;11.570;2023-12-29T07:07:40;97295.22;;;7.83;100.00
1371;BME280;14306;49.942;11.570;2023-12-29T07:09:17;97283.06;;;7.85;100.00
1371;BME280;14306;49.942;11.570;2023-12-29T07:10:50;97286.50;;;7.91;100.00
1371;BME280;14306;49.942;11.570;2023-12-29T07:12:25;97298.53;;;7.98;100.00
1371;BME280;14306;49.942;11.570;2023-12-29T07:13:58;97302.53;;;8.01;100.00
1371;BME280;14306;49.942;11.570;2023-12-29T07:15:33;97296.78;;;8.07;100.00
1371;BME280;14306;49.942;11.570;2023-12-29T07:17:07;97305.25;;;8.19;100.00
1371;BME280;14306;49.942;11.570;2023-12-29T07:18:41;97289.47;;;8.32;100.00
1371;BME280;14306;49.942;11.570;2023-12-29T07:20:16;97299.66;;;8.35;100.00
1371;BME280;14306;49.942;11.570;2023-12-29T07:21:49;97307.91;;;8.43;100.00
1371;BME280;14306;49.942;11.570;2023-12-29T07:23:24;97299.44;;;8.50;100.00
1371;BME280;14306;49.942;11.570;2023-12-29T07:24:59;97306.97;;;8.53;100.00
1371;BME280;14306;49.942;11.570;2023-12-29T07:26:34;97301.91;;;8.65;100.00
1371;BME280;14306;49.942;11.570;2023-12-29T07:28:10;97299.31;;;8.60;100.00
1371;BME280;14306;49.942;11.570;2023-12-29T07:29:44;97301.03;;;8.51;100.00
1371;BME280;14306;49.942;11.570;2023-12-29T07:31:18;97301.94;;;8.46;100.00
1371;BME280;14306;49.942;11.570;2023-12-29T07:32:52;97300.69;;;8.39;100.00
1371;BME280;14306;49.942;11.570;2023-12-29T07:34:27;97306.31;;;8.42;100.00
1371;BME280;14306;49.942;11.570;2023-12-29T07:36:04;97305.72;;;8.45;100.00
1371;BME280;14306;49.942;11.570;2023-12-29T07:37:38;97296.19;;;8.34;100.00
1371;BME280;14306;49.942;11.570;2023-12-29T07:39:13;97318.72;;;8.43;100.00
1371;BME280;14306;49.942;11.570;2023-12-29T07:40:48;97311.72;;;8.42;100.00
1371;BME280;14306;49.942;11.570;2023-12-29T07:42:22;97313.81;;;8.45;100.00
1371;BME280;14306;49.942;11.570;2023-12-29T07:43:57;97321.84;;;8.50;100.00
1371;BME280;14306;49.942;11.570;2023-12-29T07:45:32;97325.56;;;8.54;100.00
1371;BME280;14306;49.942;11.570;2023-12-29T07:47:06;97320.53;;;8.66;100.00
1371;BME280;14306;49.942;11.570;2023-12-29T07:48:39;97324.66;;;8.77;100.00
1371;BME280;14306;49.942;11.570;2023-12-29T07:50:14;97329.88;;;8.87;100.00
1371;BME280;14306;49.942;11.570;2023-12-29T07:51:48;97320.53;;;8.98;100.00
1371;BME280;14306;49.942;11.570;2023-12-29T07:53:23;97342.84;;;9.22;100.00
1371;BME280;14306;49.942;11.570;2023-12-29T07:54:56;97348.22;;;9.22;100.00
1371;BME280;14306;49.942;11.570;2023-12-29T07:56:31;97357.75;;;9.33;100.00
1371;BME280;14306;49.942;11.570;2023-12-29T07:58:05;97362.78;;;9.40;100.00
1371;BME280;14306;49.942;11.570;2023-12-29T07:59:42;97369.00;;;9.54;100.00
1371;BME280;14306;49.942;11.570;2023-12-29T08:01:15;97371.41;;;9.55;100.00
1371;BME280;14306;49.942;11.570;2023-12-29T08:02:51;97375.34;;;9.63;100.00
1371;BME280;14306;49.942;11.570;2023-12-29T08:04:26;97379.25;;;9.70;100.00
1371;BME280;14306;49.942;11.570;2023-12-29T08:05:59;97377.34;;;9.71;100.00
1371;BME280;14306;49.942;11.570;2023-12-29T08:07:33;97381.84;;;9.75;100.00
1371;BME280;14306;49.942;11.570;2023-12-29T08:09:07;97392.00;;;9.83;100.00
1371;BME280;14306;49.942;11.570;2023-12-29T08:10:41;97385.34;;;9.76;100.00
1371;BME280;14306;49.942;11.570;2023-12-29T08:12:16;97396.28;;;9.84;100.00
1371;BME280;14306;49.942;11.570;2023-12-29T08:13:50;97392.78;;;9.97;100.00
1371;BME280;14306;49.942;11.570;2023-12-29T08:15:23;97403.31;;;9.99;100.00
1371;BME280;14306;49.942;11.570;2023-12-29T08:16:57;97397.75;;;10.09;100.00
1371;BME280;14306;49.942;11.570;2023-12-29T08:18:32;97396.03;;;10.13;100.00
1371;BME280;14306;49.942;11.570;2023-12-29T08:20:06;97394.22;;;10.22;100.00
1371;BME280;14306;49.942;11.570;2023-12-29T08:21:41;97403.72;;;10.46;100.00